Time;durP1;ratioP1;P1;durP2;ratioP2;P2;SDS_P1;SDS_P2;PMS_P1;PMS_P2;Temp;Humidity;BMP_temperature;BMP_pressure;BME280_temperature;BME280_humidity;BME280_pressure;Samples;Min_cycle;Max_cycle;Signal;HPM_P1;HPM_P2
2022/03/11 00:00:04;;;;;;;;;;;;;;;-5.41;65.78;100613.84;5053441;28;851;-59
2022/03/11 00:02:33;;;;;;;;;;;;;;;-5.45;65.73;100629.75;5053696;28;867;-59
2022/03/11 00:04:59;;;;;;;;;;;;;;;-5.51;65.85;100628.16;5054134;28;779;-59
2022/03/11 00:07:26;;;;;;;;;;;;;;;-5.58;66.21;100627.66;5053798;28;812;-58
2022/03/11 00:09:53;;;;;;;;;;;;;;;-5.67;66.39;100630.09;5053841;28;819;-59
2022/03/11 00:12:19;;;;;;;;;;;;;;;-5.80;66.60;100631.47;5053778;28;600;-59
2022/03/11 00:14:46;;;;;;;;;;;;;;;-5.78;66.67;100628.53;5053860;28;1889;-58
2022/03/11 00:17:12;;;;;;;;;;;;;;;-5.76;66.04;100623.66;5053713;28;1594;-58
2022/03/11 00:19:39;;;;;;;;;;;;;;;-5.69;65.80;100623.38;5053616;28;870;-58
2022/03/11 00:22:05;;;;;;;;;;;;;;;-5.70;65.15;100611.78;5053542;28;960;-58
2022/03/11 00:24:31;;;;;;;;;;;;;;;-5.79;65.29;100618.81;5053848;28;952;-58
2022/03/11 00:26:58;;;;;;;;;;;;;;;-5.95;65.31;100610.00;5053710;28;827;-58
2022/03/11 00:29:25;;;;;;;;;;;;;;;-6.04;64.93;100607.06;5052285;28;1502;-58
2022/03/11 00:31:51;;;;;;;;;;;;;;;-5.98;63.65;100592.50;5053473;28;1234;-58
2022/03/11 00:34:18;;;;;;;;;;;;;;;-5.86;63.22;100599.47;5053937;28;1910;-58
2022/03/11 00:36:45;;;;;;;;;;;;;;;-5.90;63.57;100601.88;5053442;28;807;-58
2022/03/11 00:39:11;;;;;;;;;;;;;;;-5.98;63.50;100592.50;5068954;28;780;-58
2022/03/11 00:41:38;;;;;;;;;;;;;;;-6.08;64.76;100592.53;5053357;28;803;-58
2022/03/11 00:44:05;;;;;;;;;;;;;;;-5.92;64.03;100603.25;5053581;28;846;-58
2022/03/11 00:46:31;;;;;;;;;;;;;;;-6.00;64.08;100602.72;5052972;28;961;-59
2022/03/11 00:48:58;;;;;;;;;;;;;;;-5.88;63.49;100593.53;5052967;28;986;-58
2022/03/11 00:51:24;;;;;;;;;;;;;;;-5.89;63.45;100608.88;5053176;28;834;-58
2022/03/11 00:53:51;;;;;;;;;;;;;;;-5.89;62.97;100611.56;5052870;28;1890;-59
2022/03/11 00:56:18;;;;;;;;;;;;;;;-5.94;63.05;100600.03;5052921;28;815;-58
2022/03/11 00:58:46;;;;;;;;;;;;;;;-5.94;63.08;100603.50;5053018;28;898;-59
2022/03/11 01:01:12;;;;;;;;;;;;;;;-5.92;62.76;100603.25;5052738;28;912;-59
2022/03/11 01:03:39;;;;;;;;;;;;;;;-5.94;62.40;100606.19;5052678;28;858;-58
2022/03/11 01:06:06;;;;;;;;;;;;;;;-5.93;62.80;100607.00;5052627;28;988;-58
2022/03/11 01:08:32;;;;;;;;;;;;;;;-6.00;62.28;100608.09;5052665;28;819;-58
2022/03/11 01:10:58;;;;;;;;;;;;;;;-6.00;62.54;100618.06;5052818;28;942;-58
2022/03/11 01:13:25;;;;;;;;;;;;;;;-5.98;61.97;100603.25;5066775;28;1957;-59
2022/03/11 01:15:51;;;;;;;;;;;;;;;-6.07;62.84;100615.66;5052439;28;914;-58
2022/03/11 01:18:18;;;;;;;;;;;;;;;-6.05;61.94;100601.94;5052843;28;979;-58
2022/03/11 01:20:44;;;;;;;;;;;;;;;-6.10;62.24;100615.41;5052417;28;859;-59
2022/03/11 01:23:11;;;;;;;;;;;;;;;-6.13;62.44;100624.81;5052640;28;909;-59
2022/03/11 01:25:38;;;;;;;;;;;;;;;-6.06;61.80;100622.69;5052351;28;960;-58
2022/03/11 01:28:04;;;;;;;;;;;;;;;-6.01;61.36;100629.94;5050849;28;2105;-58
2022/03/11 01:30:29;;;;;;;;;;;;;;;-6.14;61.93;100625.09;5052467;28;914;-58
2022/03/11 01:32:56;;;;;;;;;;;;;;;-6.22;62.66;100638.03;5051772;28;1240;-58
2022/03/11 01:35:23;;;;;;;;;;;;;;;-6.22;62.32;100634.53;5052099;28;2362;-58
2022/03/11 01:37:50;;;;;;;;;;;;;;;-6.26;62.65;100628.06;5052122;28;819;-58
2022/03/11 01:40:16;;;;;;;;;;;;;;;-6.30;62.26;100632.38;5051918;28;1027;-59
2022/03/11 01:42:42;;;;;;;;;;;;;;;-6.28;62.70;100625.63;5052099;28;838;-58
2022/03/11 01:45:09;;;;;;;;;;;;;;;-6.30;62.32;100630.47;5051983;28;827;-59
2022/03/11 01:47:35;;;;;;;;;;;;;;;-6.28;62.70;100631.03;5051866;28;907;-59
2022/03/11 01:50:02;;;;;;;;;;;;;;;-6.35;62.44;100632.38;5051857;28;882;-58
2022/03/11 01:52:29;;;;;;;;;;;;;;;-6.30;63.02;100624.31;5051841;28;813;-58
2022/03/11 01:54:56;;;;;;;;;;;;;;;-6.19;62.18;100633.97;5051983;28;1910;-57
2022/03/11 01:57:23;;;;;;;;;;;;;;;-6.24;62.12;100628.59;5051619;28;894;-59
2022/03/11 01:59:50;;;;;;;;;;;;;;;-6.34;63.00;100634.78;5051709;28;804;-58
2022/03/11 02:02:15;;;;;;;;;;;;;;;-6.39;63.22;100643.66;5051779;28;851;-58
2022/03/11 02:04:42;;;;;;;;;;;;;;;-6.44;63.20;100637.50;5051639;28;837;-58
2022/03/11 02:07:10;;;;;;;;;;;;;;;-6.34;62.73;100642.84;5051598;28;921;-59
2022/03/11 02:09:37;;;;;;;;;;;;;;;-6.32;62.49;100629.94;5051534;28;1008;-59
2022/03/11 02:12:03;;;;;;;;;;;;;;;-6.50;63.49;100641.25;5051498;28;905;-59
2022/03/11 02:14:30;;;;;;;;;;;;;;;-6.69;63.94;100638.28;5051487;28;1918;-59
2022/03/11 02:16:57;;;;;;;;;;;;;;;-6.85;63.97;100632.03;5051538;28;958;-59
2022/03/11 02:19:24;;;;;;;;;;;;;;;-6.94;64.33;100647.09;5051425;28;807;-59
2022/03/11 02:21:52;;;;;;;;;;;;;;;-7.08;65.63;100633.34;5051408;28;911;-59
2022/03/11 02:24:19;;;;;;;;;;;;;;;-6.97;65.58;100639.56;5051015;28;925;-58
2022/03/11 02:26:46;;;;;;;;;;;;;;;-6.88;65.93;100638.78;5051215;28;871;-59
2022/03/11 02:29:12;;;;;;;;;;;;;;;-6.86;66.01;100639.31;5051405;28;954;-59
2022/03/11 02:31:38;;;;;;;;;;;;;;;-6.84;66.04;100644.44;5051036;28;1214;-59
2022/03/11 02:34:05;;;;;;;;;;;;;;;-7.03;66.21;100639.53;5066810;28;1917;-59
2022/03/11 02:36:31;;;;;;;;;;;;;;;-7.11;66.47;100644.63;5051218;28;1297;-59
2022/03/11 02:38:58;;;;;;;;;;;;;;;-7.10;67.61;100648.94;5051327;28;791;-58
2022/03/11 02:41:25;;;;;;;;;;;;;;;-6.88;66.51;100649.53;5051227;28;804;-59
2022/03/11 02:43:50;;;;;;;;;;;;;;;-6.72;65.91;100652.22;5051369;28;854;-59
2022/03/11 02:46:17;;;;;;;;;;;;;;;-6.77;65.54;100624.25;5051352;28;827;-59
2022/03/11 02:48:44;;;;;;;;;;;;;;;-6.65;65.14;100650.13;5050049;28;1583;-59
2022/03/11 02:51:10;;;;;;;;;;;;;;;-6.67;65.47;100653.06;5051374;28;922;-59
2022/03/11 02:53:42;;;;;;;;;;;;;;;-6.67;65.36;100644.19;5051353;28;1894;-59
2022/03/11 02:56:12;;;;;;;;;;;;;;;-6.56;65.54;100653.88;5049758;28;1223;-59
2022/03/11 02:58:39;;;;;;;;;;;;;;;-6.51;65.26;100653.88;5051079;28;835;-59
2022/03/11 03:01:05;;;;;;;;;;;;;;;-6.46;64.87;100663.84;5051066;28;974;-59
2022/03/11 03:03:32;;;;;;;;;;;;;;;-6.48;65.26;100664.13;5051020;28;911;-59
2022/03/11 03:05:58;;;;;;;;;;;;;;;-6.51;65.37;100661.94;5051335;28;815;-59
2022/03/11 03:08:25;;;;;;;;;;;;;;;-6.52;65.95;100665.72;5050954;28;964;-59
2022/03/11 03:10:50;;;;;;;;;;;;;;;-6.54;65.83;100659.00;5050950;28;940;-59
2022/03/11 03:13:18;;;;;;;;;;;;;;;-6.59;65.56;100660.59;5050885;28;1947;-59
2022/03/11 03:15:44;;;;;;;;;;;;;;;-6.66;66.03;100661.94;5050954;28;870;-59
2022/03/11 03:18:11;;;;;;;;;;;;;;;-6.70;66.29;100656.28;5051231;28;1052;-59
2022/03/11 03:20:37;;;;;;;;;;;;;;;-6.72;66.14;100653.06;5050896;28;922;-59
2022/03/11 03:23:04;;;;;;;;;;;;;;;-6.78;66.45;100649.56;5049545;28;1447;-59
2022/03/11 03:25:31;;;;;;;;;;;;;;;-6.85;67.27;100657.06;5049541;28;882;-59
2022/03/11 03:27:57;;;;;;;;;;;;;;;-6.86;67.19;100662.72;5050756;28;911;-58
2022/03/11 03:30:24;;;;;;;;;;;;;;;-6.83;67.44;100649.56;5050802;28;879;-58
2022/03/11 03:32:50;;;;;;;;;;;;;;;-6.79;67.22;100669.44;5050517;28;1213;-59
2022/03/11 03:35:17;;;;;;;;;;;;;;;-6.86;67.32;100666.19;5051045;28;1971;-58
2022/03/11 03:37:45;;;;;;;;;;;;;;;-6.68;67.33;100662.19;5054493;28;828;-58
2022/03/11 03:40:11;;;;;;;;;;;;;;;-6.60;66.77;100663.56;5054382;28;815;-58
2022/03/11 03:42:38;;;;;;;;;;;;;;;-6.51;66.62;100675.41;5053146;28;1279;-58
2022/03/11 03:45:06;;;;;;;;;;;;;;;-6.52;66.42;100673.78;5054604;28;811;-58
2022/03/11 03:47:32;;;;;;;;;;;;;;;-6.57;66.78;100681.88;5054514;28;894;-58
2022/03/11 03:49:59;;;;;;;;;;;;;;;-6.60;66.57;100680.50;5054189;28;906;-59
2022/03/11 03:52:27;;;;;;;;;;;;;;;-6.46;66.39;100683.50;5054336;28;885;-59
2022/03/11 03:54:54;;;;;;;;;;;;;;;-6.45;66.30;100677.03;5053822;28;2032;-59
2022/03/11 03:57:21;;;;;;;;;;;;;;;-6.46;66.18;100680.78;5054080;28;901;-60
2022/03/11 03:59:48;;;;;;;;;;;;;;;-6.46;66.17;100686.19;5053903;28;926;-60
2022/03/11 04:02:14;;;;;;;;;;;;;;;-6.50;66.07;100682.41;5053967;28;807;-58
2022/03/11 04:04:41;;;;;;;;;;;;;;;-6.61;66.71;100684.28;5054065;28;803;-59
2022/03/11 04:07:08;;;;;;;;;;;;;;;-6.71;66.89;100680.75;5053938;28;835;-59
2022/03/11 04:09:34;;;;;;;;;;;;;;;-6.89;67.58;100685.56;5054021;28;863;-59
2022/03/11 04:12:01;;;;;;;;;;;;;;;-6.94;67.84;100682.84;5054055;28;866;-59
2022/03/11 04:14:27;;;;;;;;;;;;;;;-6.82;67.50;100682.63;5053811;28;1890;-59
2022/03/11 04:16:55;;;;;;;;;;;;;;;-6.83;67.57;100687.19;5054332;28;965;-60
2022/03/11 04:19:21;;;;;;;;;;;;;;;-6.88;67.40;100686.34;5053789;28;855;-59
2022/03/11 04:21:48;;;;;;;;;;;;;;;-6.91;67.67;100685.00;5054231;28;795;-59
2022/03/11 04:24:14;;;;;;;;;;;;;;;-6.83;67.30;100687.19;5053452;28;835;-60
2022/03/11 04:26:44;;;;;;;;;;;;;;;-6.82;66.92;100691.47;5053442;28;902;-59
2022/03/11 04:29:12;;;;;;;;;;;;;;;-6.68;66.74;100697.16;5053516;28;867;-59
2022/03/11 04:31:39;;;;;;;;;;;;;;;-6.67;66.88;100692.59;5053175;28;1224;-59
2022/03/11 04:34:05;;;;;;;;;;;;;;;-6.58;66.69;100702.56;5053388;28;1973;-59
2022/03/11 04:36:41;;;;;;;;;;;;;;;-6.57;66.70;100709.56;5052057;28;1382;-59
2022/03/11 04:39:08;;;;;;;;;;;;;;;-6.58;66.64;100704.44;5053285;28;886;-59
2022/03/11 04:41:35;;;;;;;;;;;;;;;-6.49;66.54;100697.44;5053105;28;937;-59
2022/03/11 04:44:02;;;;;;;;;;;;;;;-6.43;66.36;100703.66;5053244;28;857;-59
2022/03/11 04:46:28;;;;;;;;;;;;;;;-6.44;66.82;100708.25;5051562;28;933;-59
2022/03/11 04:48:55;;;;;;;;;;;;;;;-6.45;66.23;100720.06;5052966;28;946;-59
2022/03/11 04:51:22;;;;;;;;;;;;;;;-6.42;66.36;100707.94;5053347;28;827;-58
2022/03/11 04:53:50;;;;;;;;;;;;;;;-6.42;66.31;100706.09;5053020;28;1890;-58
2022/03/11 04:56:16;;;;;;;;;;;;;;;-6.47;66.47;100703.38;5052820;28;891;-60
2022/03/11 04:58:42;;;;;;;;;;;;;;;-6.55;66.55;100709.28;5052799;28;867;-60
2022/03/11 05:01:07;;;;;;;;;;;;;;;-6.62;67.43;100704.16;5053015;28;874;-59
2022/03/11 05:03:34;;;;;;;;;;;;;;;-6.62;66.62;100711.41;5052681;28;953;-59
2022/03/11 05:06:01;;;;;;;;;;;;;;;-6.64;67.14;100718.94;5052729;28;839;-59
2022/03/11 05:08:28;;;;;;;;;;;;;;;-6.43;66.38;100706.34;5052666;28;859;-59
2022/03/11 05:10:54;;;;;;;;;;;;;;;-6.37;66.09;100711.47;5052560;28;921;-59
2022/03/11 05:13:22;;;;;;;;;;;;;;;-6.30;65.87;100713.09;5052485;28;1906;-59
2022/03/11 05:15:49;;;;;;;;;;;;;;;-6.34;66.28;100712.00;5052456;28;906;-59
2022/03/11 05:18:20;;;;;;;;;;;;;;;-6.15;65.68;100721.16;5052922;28;865;-59
2022/03/11 05:20:46;;;;;;;;;;;;;;;-5.73;64.24;100727.34;5052425;28;807;-58
2022/03/11 05:23:13;;;;;;;;;;;;;;;-5.52;62.45;100720.84;5052248;28;924;-59
2022/03/11 05:25:39;;;;;;;;;;;;;;;-5.54;62.18;100715.72;5052540;28;956;-59
2022/03/11 05:28:06;;;;;;;;;;;;;;;-5.40;61.87;100721.38;5052259;28;894;-59
2022/03/11 05:30:32;;;;;;;;;;;;;;;-5.16;61.07;100718.06;5052151;28;1005;-59
2022/03/11 05:32:58;;;;;;;;;;;;;;;-4.93;60.96;100722.81;5052159;28;1426;-58
2022/03/11 05:35:24;;;;;;;;;;;;;;;-4.69;58.52;100715.94;5052063;28;1906;-58
2022/03/11 05:37:52;;;;;;;;;;;;;;;-4.64;58.68;100716.75;5052322;28;924;-58
2022/03/11 05:40:17;;;;;;;;;;;;;;;-4.62;58.13;100719.16;5052145;28;842;-59
2022/03/11 05:42:44;;;;;;;;;;;;;;;-4.62;58.04;100711.06;5052088;28;1621;-59
2022/03/11 05:45:12;;;;;;;;;;;;;;;-4.45;57.59;100716.91;5051939;28;883;-59
2022/03/11 05:47:39;;;;;;;;;;;;;;;-4.21;56.79;100717.00;5051869;28;957;-58
2022/03/11 05:50:06;;;;;;;;;;;;;;;-4.39;56.77;100709.59;5051900;28;945;-58
2022/03/11 05:52:35;;;;;;;;;;;;;;;-4.45;57.37;100714.19;5051737;28;971;-59
2022/03/11 05:55:02;;;;;;;;;;;;;;;-4.49;56.70;100688.06;5067472;28;1882;-59
2022/03/11 05:57:28;;;;;;;;;;;;;;;-4.51;56.59;100708.03;5051759;28;910;-59
2022/03/11 05:59:55;;;;;;;;;;;;;;;-4.21;55.87;100703.50;5051087;28;905;-59
2022/03/11 06:02:21;;;;;;;;;;;;;;;-4.42;56.40;100697.44;5051643;28;871;-58
2022/03/11 06:04:48;;;;;;;;;;;;;;;-4.53;56.33;100709.38;5051667;28;792;-57
2022/03/11 06:07:14;;;;;;;;;;;;;;;-4.67;56.59;100693.03;5051638;28;882;-58
2022/03/11 06:09:41;;;;;;;;;;;;;;;-4.59;56.73;100699.72;5051555;28;867;-58
2022/03/11 06:12:07;;;;;;;;;;;;;;;-4.53;56.83;100704.00;5051572;28;949;-58
2022/03/11 06:14:34;;;;;;;;;;;;;;;-4.14;56.17;100709.41;5051485;28;1874;-59
2022/03/11 06:17:01;;;;;;;;;;;;;;;-3.72;54.94;100682.84;5051807;28;1031;-58
2022/03/11 06:19:27;;;;;;;;;;;;;;;-3.71;54.01;100696.06;5051405;28;938;-59
2022/03/11 06:21:55;;;;;;;;;;;;;;;-3.67;53.84;100707.09;5051421;28;926;-56
2022/03/11 06:24:21;;;;;;;;;;;;;;;-3.77;54.82;100715.31;5051383;28;893;-56
2022/03/11 06:26:47;;;;;;;;;;;;;;;-3.55;53.75;100694.00;5050317;28;847;-57
2022/03/11 06:29:15;;;;;;;;;;;;;;;-3.20;53.38;100694.72;5051496;28;941;-58
2022/03/11 06:31:40;;;;;;;;;;;;;;;-3.05;52.50;100690.22;5051207;28;1243;-56
2022/03/11 06:34:07;;;;;;;;;;;;;;;-3.08;52.85;100669.97;5051573;28;1910;-58
2022/03/11 06:36:34;;;;;;;;;;;;;;;-2.92;52.92;100676.00;5052177;28;810;-59
2022/03/11 06:39:01;;;;;;;;;;;;;;;-3.27;52.35;100675.31;5051688;28;855;-57
2022/03/11 06:41:27;;;;;;;;;;;;;;;-3.37;53.21;100668.16;5051413;28;922;-59
2022/03/11 06:43:54;;;;;;;;;;;;;;;-3.40;52.58;100654.41;5051411;28;819;-58
2022/03/11 06:46:20;;;;;;;;;;;;;;;-3.17;52.03;100647.38;5051245;28;846;-57
2022/03/11 06:48:47;;;;;;;;;;;;;;;-3.23;51.24;100665.53;5051258;28;886;-58
2022/03/11 06:51:13;;;;;;;;;;;;;;;-3.36;51.79;100679.75;5051070;28;938;-58
2022/03/11 06:53:40;;;;;;;;;;;;;;;-3.50;52.63;100660.72;5051003;28;1971;-56
2022/03/11 06:56:07;;;;;;;;;;;;;;;-3.55;52.49;100644.56;5051089;28;855;-58
2022/03/11 06:58:34;;;;;;;;;;;;;;;-3.43;52.86;100657.69;5051156;28;808;-58
2022/03/11 07:01:00;;;;;;;;;;;;;;;-3.19;51.00;100652.25;5049852;28;1468;-59
2022/03/11 07:03:27;;;;;;;;;;;;;;;-3.16;50.88;100659.78;5051069;28;823;-58
2022/03/11 07:05:54;;;;;;;;;;;;;;;-3.26;51.13;100571.50;5051044;28;827;-50
2022/03/11 07:08:20;;;;;;;;;;;;;;;-3.09;50.49;100657.53;5051123;28;831;-58
2022/03/11 07:10:47;;;;;;;;;;;;;;;-2.94;50.68;100624.88;5053647;28;850;-58
2022/03/11 07:13:13;;;;;;;;;;;;;;;-2.73;48.84;100624.56;5055055;28;874;-59
2022/03/11 07:15:40;;;;;;;;;;;;;;;-2.67;48.83;100635.06;5054859;28;862;-59
2022/03/11 07:18:07;;;;;;;;;;;;;;;-2.49;47.79;100617.19;5055101;28;918;-57
2022/03/11 07:20:34;;;;;;;;;;;;;;;-2.27;46.58;100610.34;5054737;28;894;-58
2022/03/11 07:23:00;;;;;;;;;;;;;;;-2.42;46.44;100626.84;5054555;28;926;-58
2022/03/11 07:25:27;;;;;;;;;;;;;;;-2.60;46.36;100644.69;5054485;28;900;-58
2022/03/11 07:27:53;;;;;;;;;;;;;;;-2.17;46.54;100629.13;5054609;28;859;-59
2022/03/11 07:30:20;;;;;;;;;;;;;;;-1.73;45.50;100625.09;5069993;28;892;-59
2022/03/11 07:32:47;;;;;;;;;;;;;;;-2.14;44.09;100657.50;5054202;28;1357;-58
2022/03/11 07:35:13;;;;;;;;;;;;;;;-2.26;44.65;100658.78;5053133;28;1968;-58
2022/03/11 07:37:40;;;;;;;;;;;;;;;-2.04;44.99;100653.84;5054372;28;835;-58
2022/03/11 07:40:07;;;;;;;;;;;;;;;-2.01;44.21;100672.19;5054352;28;815;-59
2022/03/11 07:42:34;;;;;;;;;;;;;;;-2.09;45.49;100654.72;5054634;28;858;-59
2022/03/11 07:45:02;;;;;;;;;;;;;;;-1.62;45.02;100669.09;5054285;28;803;-58
2022/03/11 07:47:29;;;;;;;;;;;;;;;-1.88;42.49;100699.34;5054165;28;882;-59
2022/03/11 07:49:55;;;;;;;;;;;;;;;-2.29;43.43;100661.28;5054135;28;913;-57
2022/03/11 07:52:22;;;;;;;;;;;;;;;-1.94;43.65;100683.44;5053989;28;917;-57
2022/03/11 07:54:49;;;;;;;;;;;;;;;-1.86;42.54;100674.66;5052741;28;1939;-56
2022/03/11 07:57:15;;;;;;;;;;;;;;;-2.06;41.39;100700.19;5053992;28;961;-55
2022/03/11 07:59:42;;;;;;;;;;;;;;;-1.99;41.75;100694.38;5053964;28;915;-58
2022/03/11 08:02:08;;;;;;;;;;;;;;;-1.47;41.07;100712.19;5053948;28;954;-57
2022/03/11 08:04:34;;;;;;;;;;;;;;;-1.44;41.51;100711.56;5052627;28;904;-58
2022/03/11 08:10:18;;;;;;;;;;;;;;;-1.34;40.50;100715.22;5053894;28;618;-58
2022/03/11 08:12:45;;;;;;;;;;;;;;;-1.13;39.44;100721.03;5053750;28;863;-58
2022/03/11 08:15:12;;;;;;;;;;;;;;;-0.98;39.80;100711.78;5053658;28;1898;-55
2022/03/11 08:17:40;;;;;;;;;;;;;;;-1.23;39.04;100743.75;5069172;28;1140;-58
2022/03/11 08:20:07;;;;;;;;;;;;;;;-1.04;39.42;100724.66;5053555;28;936;-56
2022/03/11 08:22:34;;;;;;;;;;;;;;;-1.30;39.27;100708.06;5052931;28;941;-49
2022/03/11 08:25:00;;;;;;;;;;;;;;;-1.39;41.06;100739.69;5053495;28;934;-57
2022/03/11 08:27:27;;;;;;;;;;;;;;;-0.75;38.90;100745.25;5053467;28;874;-57
2022/03/11 08:29:53;;;;;;;;;;;;;;;-0.68;38.28;100742.94;5053487;28;803;-56
2022/03/11 08:32:20;;;;;;;;;;;;;;;-0.84;39.19;100720.72;5053316;28;1459;-55
2022/03/11 08:34:46;;;;;;;;;;;;;;;-1.03;38.72;100737.13;5053281;28;1918;-58
2022/03/11 08:37:12;;;;;;;;;;;;;;;-1.10;38.24;100715.81;5053219;28;890;-57
2022/03/11 08:39:38;;;;;;;;;;;;;;;-1.05;37.97;100731.97;5053278;28;910;-58
2022/03/11 08:42:04;;;;;;;;;;;;;;;-1.09;38.82;100703.03;5053189;28;1179;-57
2022/03/11 08:44:30;;;;;;;;;;;;;;;-0.90;38.88;100717.31;5053261;28;780;-57
2022/03/11 08:46:57;;;;;;;;;;;;;;;-0.77;38.88;100702.09;5053146;28;908;-57
2022/03/11 08:49:23;;;;;;;;;;;;;;;-0.40;37.53;100710.31;5053029;28;835;-58
2022/03/11 08:51:52;;;;;;;;;;;;;;;-0.56;37.48;100699.75;5053044;28;1061;-58
2022/03/11 08:54:20;;;;;;;;;;;;;;;-0.32;38.29;100709.56;5052920;28;1983;-59
2022/03/11 08:56:46;;;;;;;;;;;;;;;-0.44;38.57;100689.16;5052898;28;978;-57
2022/03/11 08:59:13;;;;;;;;;;;;;;;-0.24;37.74;100722.41;5051590;28;1492;-58
2022/03/11 09:01:39;;;;;;;;;;;;;;;-0.51;37.36;100696.94;5052802;28;831;-57
2022/03/11 09:04:06;;;;;;;;;;;;;;;-0.34;37.81;100730.78;5052861;28;854;-58
2022/03/11 09:06:33;;;;;;;;;;;;;;;-0.02;36.56;100725.16;5052646;28;966;-59
2022/03/11 09:09:00;;;;;;;;;;;;;;;-0.31;36.11;100692.16;5052657;28;933;-58
2022/03/11 09:11:26;;;;;;;;;;;;;;;-0.31;36.92;100701.09;5052878;28;940;-57
2022/03/11 09:13:52;;;;;;;;;;;;;;;-0.04;36.50;100713.00;5052547;28;1886;-59
2022/03/11 09:16:19;;;;;;;;;;;;;;;-0.08;37.34;100739.19;5052474;28;1031;-59
2022/03/11 09:18:45;;;;;;;;;;;;;;;-0.63;37.00;100719.19;5052474;28;902;-59
2022/03/11 09:21:12;;;;;;;;;;;;;;;-0.71;37.02;100719.91;5052355;28;937;-59
2022/03/11 09:23:39;;;;;;;;;;;;;;;-0.88;38.00;100725.94;5052357;28;898;-57
2022/03/11 09:26:06;;;;;;;;;;;;;;;-0.82;37.88;100738.31;5052366;28;961;-58
2022/03/11 09:28:32;;;;;;;;;;;;;;;-0.73;37.90;100707.75;5052272;28;823;-59
2022/03/11 09:31:01;;;;;;;;;;;;;;;-0.86;37.10;100725.66;5052295;28;843;-58
2022/03/11 09:33:27;;;;;;;;;;;;;;;-1.30;37.95;100713.47;5050939;28;1926;-57
2022/03/11 09:35:54;;;;;;;;;;;;;;;-1.19;39.61;100727.69;5052120;28;874;-58
2022/03/11 09:38:21;;;;;;;;;;;;;;;-0.99;38.73;100726.47;5052144;28;831;-58
2022/03/11 09:40:50;;;;;;;;;;;;;;;-1.04;38.46;100727.38;5052089;28;780;-59
2022/03/11 09:43:17;;;;;;;;;;;;;;;-0.94;38.57;100737.22;5052013;28;902;-58
2022/03/11 09:45:45;;;;;;;;;;;;;;;-0.55;38.35;100727.75;5052035;28;834;-59
2022/03/11 09:48:11;;;;;;;;;;;;;;;0.03;37.97;100737.03;5051871;28;941;-59
2022/03/11 09:50:38;;;;;;;;;;;;;;;-0.36;37.66;100720.25;5051744;28;906;-58
2022/03/11 09:53:05;;;;;;;;;;;;;;;-0.13;37.78;100726.47;5051944;28;835;-59
2022/03/11 09:55:32;;;;;;;;;;;;;;;-0.01;38.82;100726.75;5050465;28;1910;-58
2022/03/11 09:57:59;;;;;;;;;;;;;;;-0.30;37.88;100727.16;5051815;28;921;-58
2022/03/11 10:00:24;;;;;;;;;;;;;;;-0.25;37.93;100723.53;5050495;28;1274;-59
2022/03/11 10:02:51;;;;;;;;;;;;;;;-0.32;38.37;100715.81;5051727;28;868;-59
2022/03/11 10:05:18;;;;;;;;;;;;;;;-0.49;38.60;100721.88;5051741;28;847;-59
2022/03/11 10:07:57;;;;;;;;;;;;;;;-0.79;38.93;100709.78;5051626;28;874;-60
2022/03/11 10:10:23;;;;;;;;;;;;;;;-0.74;40.11;100723.25;5052280;28;827;-59
2022/03/11 10:12:51;;;;;;;;;;;;;;;-0.91;39.30;100731.19;5051837;28;826;-59
2022/03/11 10:15:26;;;;;;;;;;;;;;;-1.09;39.98;100698.44;5052191;28;1889;-59
2022/03/11 10:17:53;;;;;;;;;;;;;;;-0.82;40.11;100699.50;5051524;28;1454;-60
2022/03/11 10:20:19;;;;;;;;;;;;;;;-0.65;40.67;100696.16;5051327;28;977;-59
2022/03/11 10:22:45;;;;;;;;;;;;;;;-0.59;40.88;100700.38;5051492;28;1211;-60
2022/03/11 10:25:18;;;;;;;;;;;;;;;-0.50;40.64;100698.53;5051459;28;945;-58
2022/03/11 10:28:02;;;;;;;;;;;;;;;-0.69;40.92;100725.84;5051498;28;989;-59
2022/03/11 10:30:31;;;;;;;;;;;;;;;-0.64;41.75;100701.31;5051423;28;862;-59
2022/03/11 10:32:59;;;;;;;;;;;;;;;-0.57;41.34;100692.72;5051070;28;1241;-59
2022/03/11 10:35:36;;;;;;;;;;;;;;;-1.13;41.59;100693.91;5051285;28;1910;-59
2022/03/11 10:38:05;;;;;;;;;;;;;;;-1.49;42.45;100703.53;5051794;28;803;-59
2022/03/11 10:40:32;;;;;;;;;;;;;;;-1.52;42.92;100695.19;5051545;28;887;-58
2022/03/11 10:43:13;;;;;;;;;;;;;;;-1.42;43.12;100683.38;5067317;28;815;-58
2022/03/11 10:45:49;;;;;;;;;;;;;;;-1.05;42.60;100690.47;5053756;28;936;-59
2022/03/11 10:48:16;;;;;;;;;;;;;;;-0.58;41.25;100672.09;5055276;28;863;-58
2022/03/11 10:50:43;;;;;;;;;;;;;;;-1.24;41.57;100683.28;5055372;28;839;-60
2022/03/11 10:53:10;;;;;;;;;;;;;;;-1.55;43.13;100671.41;5055303;28;870;-59
2022/03/11 10:55:39;;;;;;;;;;;;;;;-1.61;42.99;100688.88;5055141;28;1955;-58
2022/03/11 10:58:06;;;;;;;;;;;;;;;-1.66;44.41;100662.66;5055252;28;862;-59
2022/03/11 11:00:37;;;;;;;;;;;;;;;-1.69;43.94;100655.09;5055040;28;887;-59
2022/03/11 11:03:05;;;;;;;;;;;;;;;-2.03;44.63;100655.44;5055007;28;879;-58
2022/03/11 11:05:32;;;;;;;;;;;;;;;-1.30;43.60;100642.97;5055252;28;791;-59
2022/03/11 11:07:59;;;;;;;;;;;;;;;-0.70;41.58;100626.50;5054896;28;936;-56
2022/03/11 11:10:27;;;;;;;;;;;;;;;-0.62;41.86;100650.22;5054966;28;832;-58
2022/03/11 11:12:53;;;;;;;;;;;;;;;-0.35;41.70;100642.25;5054862;28;867;-57
2022/03/11 11:15:21;;;;;;;;;;;;;;;-0.10;39.53;100633.47;5054724;28;1890;-59
2022/03/11 11:17:51;;;;;;;;;;;;;;;-0.16;40.05;100623.06;5054935;28;1018;-59
2022/03/11 11:20:18;;;;;;;;;;;;;;;0.04;39.10;100632.59;5054777;28;878;-58
2022/03/11 11:22:45;;;;;;;;;;;;;;;-0.05;38.79;100625.19;5054722;28;882;-59
2022/03/11 11:25:12;;;;;;;;;;;;;;;-0.24;39.83;100625.38;5054670;28;849;-60
2022/03/11 11:27:38;;;;;;;;;;;;;;;-0.28;41.24;100615.44;5054638;28;895;-60
2022/03/11 11:30:05;;;;;;;;;;;;;;;-0.29;40.16;100575.81;5054550;28;847;-59
2022/03/11 11:32:35;;;;;;;;;;;;;;;-0.20;40.55;100622.88;5054273;28;1256;-60
2022/03/11 11:35:19;;;;;;;;;;;;;;;-0.02;40.24;100615.63;5054668;28;1979;-60
2022/03/11 11:37:47;;;;;;;;;;;;;;;-0.12;39.59;100608.53;5054500;28;823;-57
2022/03/11 11:40:23;;;;;;;;;;;;;;;-0.36;41.67;100619.75;5054378;28;866;-59
2022/03/11 11:43:08;;;;;;;;;;;;;;;-0.08;40.90;100601.38;5054456;28;898;-60
2022/03/11 11:45:42;;;;;;;;;;;;;;;0.30;39.43;100573.72;5054368;28;834;-54
2022/03/11 11:48:27;;;;;;;;;;;;;;;-0.04;40.75;100596.91;5054098;28;905;-59
2022/03/11 11:50:53;;;;;;;;;;;;;;;-0.38;40.60;100612.97;5054493;28;917;-57
2022/03/11 11:53:43;;;;;;;;;;;;;;;-0.74;40.73;100611.94;5054319;28;827;-58
2022/03/11 11:56:24;;;;;;;;;;;;;;;-0.86;40.68;100589.94;5053399;28;838;-58
2022/03/11 11:58:56;;;;;;;;;;;;;;;-0.74;41.24;100600.28;5054057;28;870;-58
2022/03/11 12:01:42;;;;;;;;;;;;;;;-0.50;41.57;100603.47;5054158;28;921;-59
2022/03/11 12:04:27;;;;;;;;;;;;;;;-0.09;41.58;100607.91;5054543;28;876;-58
2022/03/11 12:06:56;;;;;;;;;;;;;;;-0.32;40.65;100607.13;5053931;28;866;-58
2022/03/11 12:09:41;;;;;;;;;;;;;;;-0.51;41.58;100585.59;5053942;28;854;-58
2022/03/11 12:12:09;;;;;;;;;;;;;;;-0.44;41.08;100580.53;5053853;28;783;-56
2022/03/11 12:14:56;;;;;;;;;;;;;;;-0.15;39.58;100597.47;5053630;28;1881;-58
2022/03/11 12:17:41;;;;;;;;;;;;;;;0.01;41.25;100589.75;5053393;28;1414;-59
2022/03/11 12:20:26;;;;;;;;;;;;;;;0.46;39.16;100584.16;5053728;28;855;-55
2022/03/11 12:23:00;;;;;;;;;;;;;;;-0.05;38.43;100589.06;5053584;28;1047;-59
2022/03/11 12:25:29;;;;;;;;;;;;;;;-0.16;39.60;100601.31;5053572;28;965;-58
2022/03/11 12:28:09;;;;;;;;;;;;;;;-0.30;38.93;100607.63;5053501;28;850;-58
2022/03/11 12:30:38;;;;;;;;;;;;;;;-0.29;39.13;100589.41;5053480;28;866;-56
2022/03/11 12:33:06;;;;;;;;;;;;;;;-0.17;39.08;100614.13;5053199;28;1383;-58
2022/03/11 12:35:33;;;;;;;;;;;;;;;-0.34;38.95;100594.94;5053250;28;1977;-60
2022/03/11 12:38:00;;;;;;;;;;;;;;;-0.42;40.22;100612.81;5053392;28;839;-59
2022/03/11 12:40:27;;;;;;;;;;;;;;;-0.63;40.56;100613.28;5053215;28;946;-59
2022/03/11 12:42:58;;;;;;;;;;;;;;;-0.79;41.07;100597.66;5053296;28;835;-58
2022/03/11 12:45:45;;;;;;;;;;;;;;;-1.17;41.63;100634.03;5053254;28;850;-58
2022/03/11 12:48:13;;;;;;;;;;;;;;;-1.41;41.10;100638.84;5053224;28;1815;-59
2022/03/11 12:50:40;;;;;;;;;;;;;;;-1.50;42.22;100631.41;5053228;28;862;-59
2022/03/11 12:53:07;;;;;;;;;;;;;;;-1.58;42.69;100636.75;5053019;28;827;-58
2022/03/11 12:55:34;;;;;;;;;;;;;;;-1.51;42.68;100654.22;5052973;28;1886;-59
2022/03/11 12:58:02;;;;;;;;;;;;;;;-1.42;42.83;100657.03;5052944;28;929;-58
2022/03/11 13:00:30;;;;;;;;;;;;;;;-1.30;42.92;100670.91;5052866;28;950;-58